sensor_id;sensor_type;location;lat;lon;timestamp;pressure;altitude;pressure_sealevel;temperature;humidity
63097;BME280;49185;42.320;23.198;2023-05-22T00:02:01;94501.56;;;13.58;72.83
63097;BME280;49185;42.320;23.198;2023-05-22T00:04:27;94499.91;;;13.73;71.84
63097;BME280;49185;42.320;23.198;2023-05-22T00:06:53;94507.94;;;13.73;72.32
63097;BME280;49185;42.320;23.198;2023-05-22T00:09:18;94498.03;;;13.73;71.35
63097;BME280;49185;42.320;23.198;2023-05-22T00:11:43;94489.91;;;13.99;70.20
63097;BME280;49185;42.320;23.198;2023-05-22T00:14:09;94488.53;;;14.01;69.62
63097;BME280;49185;42.320;23.198;2023-05-22T00:16:34;94493.34;;;14.04;69.04
63097;BME280;49185;42.320;23.198;2023-05-22T00:19:00;94490.06;;;14.13;68.74
63097;BME280;49185;42.320;23.198;2023-05-22T00:21:25;94487.84;;;14.25;68.37
63097;BME280;49185;42.320;23.198;2023-05-22T00:23:50;94480.66;;;14.26;68.05
63097;BME280;49185;42.320;23.198;2023-05-22T00:26:16;94480.09;;;14.23;67.41
63097;BME280;49185;42.320;23.198;2023-05-22T00:28:41;94478.22;;;14.29;67.43
63097;BME280;49185;42.320;23.198;2023-05-22T00:31:07;94473.66;;;14.30;67.23
63097;BME280;49185;42.320;23.198;2023-05-22T00:33:33;94477.41;;;14.29;67.03
63097;BME280;49185;42.320;23.198;2023-05-22T00:35:59;94475.34;;;14.55;65.51
63097;BME280;49185;42.320;23.198;2023-05-22T00:38:30;94474.59;;;14.49;65.56
63097;BME280;49185;42.320;23.198;2023-05-22T00:40:55;94474.84;;;14.48;64.84
63097;BME280;49185;42.320;23.198;2023-05-22T00:43:21;94481.47;;;14.55;64.07
63097;BME280;49185;42.320;23.198;2023-05-22T00:45:46;94481.97;;;14.68;63.57
63097;BME280;49185;42.320;23.198;2023-05-22T00:48:12;94477.50;;;14.53;64.14
63097;BME280;49185;42.320;23.198;2023-05-22T00:50:37;94475.59;;;14.58;63.48
63097;BME280;49185;42.320;23.198;2023-05-22T00:53:03;94474.63;;;14.44;63.72
63097;BME280;49185;42.320;23.198;2023-05-22T00:55:28;94486.34;;;14.48;63.46
63097;BME280;49185;42.320;23.198;2023-05-22T00:57:55;94482.25;;;14.66;62.66
63097;BME280;49185;42.320;23.198;2023-05-22T01:00:21;94474.28;;;14.61;62.95
63097;BME280;49185;42.320;23.198;2023-05-22T01:02:47;94475.41;;;14.44;63.62
63097;BME280;49185;42.320;23.198;2023-05-22T01:05:13;94475.03;;;14.27;64.49
63097;BME280;49185;42.320;23.198;2023-05-22T01:07:39;94469.47;;;14.58;63.93
63097;BME280;49185;42.320;23.198;2023-05-22T01:10:04;94463.84;;;14.59;63.45
63097;BME280;49185;42.320;23.198;2023-05-22T01:12:43;94463.94;;;14.39;64.21
63097;BME280;49185;42.320;23.198;2023-05-22T01:15:25;94464.50;;;14.36;64.07
63097;BME280;49185;42.320;23.198;2023-05-22T01:18:38;94455.91;;;14.39;64.23
63097;BME280;49185;42.320;23.198;2023-05-22T01:21:20;94460.28;;;14.30;64.27
63097;BME280;49185;42.320;23.198;2023-05-22T01:31:40;94457.50;;;14.00;65.00
63097;BME280;49185;42.320;23.198;2023-05-22T01:34:10;94454.28;;;14.03;64.74
63097;BME280;49185;42.320;23.198;2023-05-22T01:36:36;94454.50;;;14.12;64.69
63097;BME280;49185;42.320;23.198;2023-05-22T01:39:03;94444.59;;;14.13;65.88
63097;BME280;49185;42.320;23.198;2023-05-22T01:41:29;94449.94;;;14.13;65.64
63097;BME280;49185;42.320;23.198;2023-05-22T01:43:55;94447.41;;;13.92;66.59
63097;BME280;49185;42.320;23.198;2023-05-22T01:46:24;94441.06;;;13.78;67.72
63097;BME280;49185;42.320;23.198;2023-05-22T01:48:49;94439.50;;;13.61;67.88
63097;BME280;49185;42.320;23.198;2023-05-22T01:51:51;94437.44;;;13.48;68.55
63097;BME280;49185;42.320;23.198;2023-05-22T01:54:42;94440.41;;;13.41;69.30
63097;BME280;49185;42.320;23.198;2023-05-22T01:57:33;94438.16;;;13.69;68.14
63097;BME280;49185;42.320;23.198;2023-05-22T02:00:06;94429.09;;;14.10;66.63
63097;BME280;49185;42.320;23.198;2023-05-22T02:02:35;94430.22;;;14.43;65.71
63097;BME280;49185;42.320;23.198;2023-05-22T02:05:03;94437.94;;;14.10;66.39
63097;BME280;49185;42.320;23.198;2023-05-22T02:07:31;94435.22;;;14.15;66.81
63097;BME280;49185;42.320;23.198;2023-05-22T02:09:57;94440.97;;;13.88;67.19
63097;BME280;49185;42.320;23.198;2023-05-22T02:12:23;94438.00;;;13.95;66.67
63097;BME280;49185;42.320;23.198;2023-05-22T02:14:49;94442.53;;;13.99;66.73
63097;BME280;49185;42.320;23.198;2023-05-22T02:17:15;94437.63;;;14.17;66.42
63097;BME280;49185;42.320;23.198;2023-05-22T02:19:40;94439.31;;;14.02;67.02
63097;BME280;49185;42.320;23.198;2023-05-22T02:22:06;94437.56;;;14.27;66.40
63097;BME280;49185;42.320;23.198;2023-05-22T02:24:34;94433.09;;;14.12;66.49
63097;BME280;49185;42.320;23.198;2023-05-22T02:26:59;94442.41;;;14.20;65.80
63097;BME280;49185;42.320;23.198;2023-05-22T02:29:25;94440.22;;;14.27;65.88
63097;BME280;49185;42.320;23.198;2023-05-22T02:31:52;94431.94;;;14.23;66.14
63097;BME280;49185;42.320;23.198;2023-05-22T02:34:18;94443.84;;;14.02;67.04
63097;BME280;49185;42.320;23.198;2023-05-22T02:36:43;94446.09;;;13.84;68.75
63097;BME280;49185;42.320;23.198;2023-05-22T02:39:08;94449.19;;;13.47;70.68
63097;BME280;49185;42.320;23.198;2023-05-22T02:41:34;94446.03;;;13.35;71.75
63097;BME280;49185;42.320;23.198;2023-05-22T02:43:59;94452.44;;;13.28;72.78
63097;BME280;49185;42.320;23.198;2023-05-22T02:46:24;94450.34;;;13.10;73.38
63097;BME280;49185;42.320;23.198;2023-05-22T02:48:50;94453.78;;;13.26;72.87
63097;BME280;49185;42.320;23.198;2023-05-22T02:51:15;94451.16;;;13.10;73.88
63097;BME280;49185;42.320;23.198;2023-05-22T02:53:41;94453.06;;;13.00;73.79
63097;BME280;49185;42.320;23.198;2023-05-22T02:56:07;94448.78;;;13.04;74.05
63097;BME280;49185;42.320;23.198;2023-05-22T02:58:33;94447.16;;;13.08;73.58
63097;BME280;49185;42.320;23.198;2023-05-22T03:00:58;94454.09;;;13.19;73.01
63097;BME280;49185;42.320;23.198;2023-05-22T03:03:24;94448.75;;;13.09;73.49
63097;BME280;49185;42.320;23.198;2023-05-22T03:05:49;94446.09;;;13.09;74.17
63097;BME280;49185;42.320;23.198;2023-05-22T03:08:15;94453.84;;;13.00;73.98
63097;BME280;49185;42.320;23.198;2023-05-22T03:10:41;94457.84;;;12.98;74.54
63097;BME280;49185;42.320;23.198;2023-05-22T03:13:06;94450.66;;;13.03;74.08
63097;BME280;49185;42.320;23.198;2023-05-22T03:15:31;94451.41;;;13.19;72.71
63097;BME280;49185;42.320;23.198;2023-05-22T03:17:57;94465.81;;;13.28;72.42
63097;BME280;49185;42.320;23.198;2023-05-22T03:20:22;94453.78;;;13.21;72.85
63097;BME280;49185;42.320;23.198;2023-05-22T03:22:47;94463.16;;;13.23;72.97
63097;BME280;49185;42.320;23.198;2023-05-22T03:25:13;94455.41;;;13.37;71.82
63097;BME280;49185;42.320;23.198;2023-05-22T03:27:38;94466.34;;;13.36;71.75
63097;BME280;49185;42.320;23.198;2023-05-22T03:30:05;94466.34;;;13.41;71.84
63097;BME280;49185;42.320;23.198;2023-05-22T03:32:30;94470.56;;;13.47;71.44
63097;BME280;49185;42.320;23.198;2023-05-22T03:34:56;94474.88;;;13.48;71.89
63097;BME280;49185;42.320;23.198;2023-05-22T03:37:21;94473.50;;;13.51;72.00
63097;BME280;49185;42.320;23.198;2023-05-22T03:39:46;94470.31;;;13.43;72.40
63097;BME280;49185;42.320;23.198;2023-05-22T03:42:12;94471.69;;;13.41;72.80
63097;BME280;49185;42.320;23.198;2023-05-22T03:44:38;94473.25;;;13.47;72.11
63097;BME280;49185;42.320;23.198;2023-05-22T03:47:04;94467.03;;;13.67;71.81
63097;BME280;49185;42.320;23.198;2023-05-22T03:49:29;94475.84;;;13.73;71.98
63097;BME280;49185;42.320;23.198;2023-05-22T03:51:54;94469.34;;;13.84;70.95
63097;BME280;49185;42.320;23.198;2023-05-22T03:54:20;94471.75;;;13.91;70.67
63097;BME280;49185;42.320;23.198;2023-05-22T03:56:45;94471.97;;;13.99;69.98
63097;BME280;49185;42.320;23.198;2023-05-22T03:59:11;94478.31;;;14.14;69.66
63097;BME280;49185;42.320;23.198;2023-05-22T04:01:36;94475.84;;;14.57;67.45
63097;BME280;49185;42.320;23.198;2023-05-22T04:04:02;94477.22;;;14.59;67.29
63097;BME280;49185;42.320;23.198;2023-05-22T04:06:27;94474.47;;;14.70;67.24
63097;BME280;49185;42.320;23.198;2023-05-22T04:08:53;94476.25;;;14.79;65.90
63097;BME280;49185;42.320;23.198;2023-05-22T04:11:18;94468.91;;;15.44;61.18
63097;BME280;49185;42.320;23.198;2023-05-22T04:13:44;94476.38;;;15.76;59.68
63097;BME280;49185;42.320;23.198;2023-05-22T04:16:09;94482.28;;;15.73;60.15
63097;BME280;49185;42.320;23.198;2023-05-22T04:18:35;94472.09;;;15.70;60.38
63097;BME280;49185;42.320;23.198;2023-05-22T04:21:00;94481.69;;;15.81;59.93
63097;BME280;49185;42.320;23.198;2023-05-22T04:23:26;94490.00;;;15.80;60.85
63097;BME280;49185;42.320;23.198;2023-05-22T04:25:51;94478.13;;;16.43;58.60
63097;BME280;49185;42.320;23.198;2023-05-22T04:28:17;94488.03;;;17.46;56.30
63097;BME280;49185;42.320;23.198;2023-05-22T04:30:43;94483.94;;;17.49;55.35
63097;BME280;49185;42.320;23.198;2023-05-22T04:33:08;94488.31;;;16.98;56.72
63097;BME280;49185;42.320;23.198;2023-05-22T04:35:34;94486.91;;;16.86;57.31
63097;BME280;49185;42.320;23.198;2023-05-22T04:37:59;94493.25;;;16.39;58.88
63097;BME280;49185;42.320;23.198;2023-05-22T04:40:24;94494.47;;;16.08;60.61
63097;BME280;49185;42.320;23.198;2023-05-22T04:42:50;94490.00;;;15.99;60.22
63097;BME280;49185;42.320;23.198;2023-05-22T04:45:15;94494.38;;;15.94;61.98
63097;BME280;49185;42.320;23.198;2023-05-22T04:47:41;94494.88;;;15.78;61.88
63097;BME280;49185;42.320;23.198;2023-05-22T04:50:07;94488.13;;;15.80;61.48
63097;BME280;49185;42.320;23.198;2023-05-22T04:52:32;94499.84;;;16.08;59.71
63097;BME280;49185;42.320;23.198;2023-05-22T04:54:57;94494.16;;;15.91;60.25
63097;BME280;49185;42.320;23.198;2023-05-22T04:57:23;94497.13;;;15.89;60.81
63097;BME280;49185;42.320;23.198;2023-05-22T04:59:48;94497.84;;;15.95;59.14
63097;BME280;49185;42.320;23.198;2023-05-22T05:02:14;94500.13;;;16.07;59.25
63097;BME280;49185;42.320;23.198;2023-05-22T05:04:40;94501.81;;;16.41;59.24
63097;BME280;49185;42.320;23.198;2023-05-22T05:07:05;94496.94;;;16.62;56.85
63097;BME280;49185;42.320;23.198;2023-05-22T05:09:31;94498.75;;;16.66;55.28
63097;BME280;49185;42.320;23.198;2023-05-22T05:11:56;94500.56;;;16.90;54.74
63097;BME280;49185;42.320;23.198;2023-05-22T05:14:22;94499.88;;;16.98;54.26
63097;BME280;49185;42.320;23.198;2023-05-22T05:16:48;94493.34;;;17.18;53.29
63097;BME280;49185;42.320;23.198;2023-05-22T05:19:13;94504.53;;;17.25;52.39
63097;BME280;49185;42.320;23.198;2023-05-22T05:21:39;94502.72;;;17.21;52.67
63097;BME280;49185;42.320;23.198;2023-05-22T05:24:05;94506.38;;;17.11;52.99
63097;BME280;49185;42.320;23.198;2023-05-22T05:26:30;94507.31;;;17.34;52.96
63097;BME280;49185;42.320;23.198;2023-05-22T05:28:56;94503.50;;;17.07;53.39
63097;BME280;49185;42.320;23.198;2023-05-22T05:31:21;94510.75;;;17.68;52.12
63097;BME280;49185;42.320;23.198;2023-05-22T05:33:47;94506.03;;;17.45;52.14
63097;BME280;49185;42.320;23.198;2023-05-22T05:36:12;94510.75;;;17.81;50.34
63097;BME280;49185;42.320;23.198;2023-05-22T05:38:37;94504.06;;;18.57;49.03
63097;BME280;49185;42.320;23.198;2023-05-22T05:41:03;94502.75;;;19.36;46.43
63097;BME280;49185;42.320;23.198;2023-05-22T05:43:28;94509.91;;;20.21;44.84
63097;BME280;49185;42.320;23.198;2023-05-22T05:45:54;94506.13;;;20.48;44.64
63097;BME280;49185;42.320;23.198;2023-05-22T05:48:19;94508.25;;;20.77;43.79
63097;BME280;49185;42.320;23.198;2023-05-22T05:50:45;94512.31;;;20.31;44.13
63097;BME280;49185;42.320;23.198;2023-05-22T05:53:10;94520.34;;;19.65;46.82
63097;BME280;49185;42.320;23.198;2023-05-22T05:55:36;94508.72;;;19.56;45.41
63097;BME280;49185;42.320;23.198;2023-05-22T05:58:01;94507.75;;;19.51;44.91
63097;BME280;49185;42.320;23.198;2023-05-22T06:00:27;94510.72;;;19.81;45.34
63097;BME280;49185;42.320;23.198;2023-05-22T06:02:52;94514.25;;;19.82;45.10
63097;BME280;49185;42.320;23.198;2023-05-22T06:05:18;94511.75;;;19.94;44.36
63097;BME280;49185;42.320;23.198;2023-05-22T06:07:44;94513.50;;;20.74;42.18
63097;BME280;49185;42.320;23.198;2023-05-22T06:10:10;94513.03;;;22.40;39.54
63097;BME280;49185;42.320;23.198;2023-05-22T06:12:36;94500.44;;;23.65;36.44
63097;BME280;49185;42.320;23.198;2023-05-22T06:15:06;94518.47;;;25.65;33.25
63097;BME280;49185;42.320;23.198;2023-05-22T06:17:32;94520.19;;;26.18;31.83
63097;BME280;49185;42.320;23.198;2023-05-22T06:19:58;94526.69;;;26.13;31.66
63097;BME280;49185;42.320;23.198;2023-05-22T06:22:24;94530.47;;;26.24;30.12
63097;BME280;49185;42.320;23.198;2023-05-22T06:24:52;94527.56;;;26.33;31.56
63097;BME280;49185;42.320;23.198;2023-05-22T06:27:19;94525.81;;;25.20;31.86
63097;BME280;49185;42.320;23.198;2023-05-22T06:29:44;94524.63;;;24.53;32.28
63097;BME280;49185;42.320;23.198;2023-05-22T06:32:09;94520.13;;;24.97;32.92
63097;BME280;49185;42.320;23.198;2023-05-22T06:34:35;94516.88;;;25.20;31.42
63097;BME280;49185;42.320;23.198;2023-05-22T06:37:00;94517.44;;;25.13;31.21
63097;BME280;49185;42.320;23.198;2023-05-22T06:39:26;94517.09;;;25.27;31.63
63097;BME280;49185;42.320;23.198;2023-05-22T06:41:51;94514.34;;;27.06;29.32
63097;BME280;49185;42.320;23.198;2023-05-22T06:44:16;94519.47;;;27.07;28.06
63097;BME280;49185;42.320;23.198;2023-05-22T06:46:42;94527.03;;;26.79;28.77
63097;BME280;49185;42.320;23.198;2023-05-22T06:49:07;94530.38;;;24.88;30.35
63097;BME280;49185;42.320;23.198;2023-05-22T06:51:32;94526.00;;;24.59;31.79
63097;BME280;49185;42.320;23.198;2023-05-22T06:53:58;94524.97;;;25.45;31.26
63097;BME280;49185;42.320;23.198;2023-05-22T06:56:23;94525.09;;;25.36;30.69
63097;BME280;49185;42.320;23.198;2023-05-22T06:58:49;94517.00;;;25.84;30.65
63097;BME280;49185;42.320;23.198;2023-05-22T07:01:14;94531.06;;;26.49;28.02
63097;BME280;49185;42.320;23.198;2023-05-22T07:03:40;94516.81;;;26.40;27.35
63097;BME280;49185;42.320;23.198;2023-05-22T07:06:05;94521.78;;;26.70;27.42
63097;BME280;49185;42.320;23.198;2023-05-22T07:08:31;94521.22;;;26.29;27.80
63097;BME280;49185;42.320;23.198;2023-05-22T07:10:56;94522.00;;;25.66;30.01
63097;BME280;49185;42.320;23.198;2023-05-22T07:13:22;94517.16;;;25.59;29.40
63097;BME280;49185;42.320;23.198;2023-05-22T07:15:47;94516.38;;;25.90;28.55
63097;BME280;49185;42.320;23.198;2023-05-22T07:18:13;94507.72;;;26.87;27.71
63097;BME280;49185;42.320;23.198;2023-05-22T07:20:38;94508.28;;;26.77;28.26
63097;BME280;49185;42.320;23.198;2023-05-22T07:23:04;94507.03;;;27.30;27.65
63097;BME280;49185;42.320;23.198;2023-05-22T07:25:30;94514.06;;;27.11;28.33
63097;BME280;49185;42.320;23.198;2023-05-22T07:27:55;94510.50;;;26.20;28.16
63097;BME280;49185;42.320;23.198;2023-05-22T07:30:21;94511.34;;;25.61;30.73
63097;BME280;49185;42.320;23.198;2023-05-22T07:32:47;94511.75;;;26.58;28.93
63097;BME280;49185;42.320;23.198;2023-05-22T07:35:12;94506.31;;;27.13;27.44
63097;BME280;49185;42.320;23.198;2023-05-22T07:37:38;94510.19;;;26.41;28.27
63097;BME280;49185;42.320;23.198;2023-05-22T07:40:04;94518.44;;;25.49;28.95
63097;BME280;49185;42.320;23.198;2023-05-22T07:42:29;94500.91;;;25.79;30.22
63097;BME280;49185;42.320;23.198;2023-05-22T07:44:55;94512.47;;;26.55;29.04
63097;BME280;49185;42.320;23.198;2023-05-22T07:47:20;94510.19;;;27.12;27.01
63097;BME280;49185;42.320;23.198;2023-05-22T07:49:46;94505.88;;;27.50;27.36
63097;BME280;49185;42.320;23.198;2023-05-22T07:52:11;94507.41;;;25.90;28.68
63097;BME280;49185;42.320;23.198;2023-05-22T07:54:37;94516.38;;;24.24;31.92
63097;BME280;49185;42.320;23.198;2023-05-22T07:57:02;94516.72;;;22.98;33.82
63097;BME280;49185;42.320;23.198;2023-05-22T07:59:28;94515.28;;;23.22;33.99
63097;BME280;49185;42.320;23.198;2023-05-22T08:01:53;94515.31;;;22.80;34.37
63097;BME280;49185;42.320;23.198;2023-05-22T08:04:19;94509.53;;;22.39;34.00
63097;BME280;49185;42.320;23.198;2023-05-22T08:06:44;94509.94;;;22.92;33.94
63097;BME280;49185;42.320;23.198;2023-05-22T08:09:10;94506.84;;;24.31;31.77
63097;BME280;49185;42.320;23.198;2023-05-22T08:11:35;94513.16;;;23.27;32.78
63097;BME280;49185;42.320;23.198;2023-05-22T08:14:01;94515.81;;;22.94;33.41
63097;BME280;49185;42.320;23.198;2023-05-22T08:16:26;94521.44;;;22.17;34.58
63097;BME280;49185;42.320;23.198;2023-05-22T08:18:51;94508.81;;;22.21;34.46
63097;BME280;49185;42.320;23.198;2023-05-22T08:21:17;94513.44;;;21.91;35.68
63097;BME280;49185;42.320;23.198;2023-05-22T08:23:43;94511.47;;;21.53;35.79
63097;BME280;49185;42.320;23.198;2023-05-22T08:26:08;94507.88;;;21.87;34.43
63097;BME280;49185;42.320;23.198;2023-05-22T08:28:33;94517.53;;;22.99;33.05
63097;BME280;49185;42.320;23.198;2023-05-22T08:30:59;94520.41;;;24.80;30.48
63097;BME280;49185;42.320;23.198;2023-05-22T08:33:24;94513.00;;;23.57;31.94
63097;BME280;49185;42.320;23.198;2023-05-22T08:35:50;94518.66;;;23.98;30.91
63097;BME280;49185;42.320;23.198;2023-05-22T08:38:15;94516.03;;;24.91;29.05
63097;BME280;49185;42.320;23.198;2023-05-22T08:40:46;94515.47;;;25.70;28.22
63097;BME280;49185;42.320;23.198;2023-05-22T08:43:11;94512.41;;;25.72;28.27
63097;BME280;49185;42.320;23.198;2023-05-22T08:45:37;94514.47;;;24.90;28.62
63097;BME280;49185;42.320;23.198;2023-05-22T08:48:04;94512.31;;;25.24;28.75
63097;BME280;49185;42.320;23.198;2023-05-22T08:50:29;94507.88;;;25.19;28.34
63097;BME280;49185;42.320;23.198;2023-05-22T08:52:55;94518.19;;;25.54;28.66
63097;BME280;49185;42.320;23.198;2023-05-22T08:55:21;94511.97;;;25.86;28.71
63097;BME280;49185;42.320;23.198;2023-05-22T08:57:48;94512.88;;;25.17;29.02
63097;BME280;49185;42.320;23.198;2023-05-22T09:00:15;94511.94;;;24.20;30.35
63097;BME280;49185;42.320;23.198;2023-05-22T09:02:41;94510.59;;;24.63;29.65
63097;BME280;49185;42.320;23.198;2023-05-22T09:05:07;94514.91;;;24.92;29.69
63097;BME280;49185;42.320;23.198;2023-05-22T09:07:33;94509.25;;;25.26;28.79
63097;BME280;49185;42.320;23.198;2023-05-22T09:09:58;94511.59;;;26.51;27.10
63097;BME280;49185;42.320;23.198;2023-05-22T09:12:24;94522.13;;;26.33;27.34
63097;BME280;49185;42.320;23.198;2023-05-22T09:14:50;94526.13;;;25.75;27.85
63097;BME280;49185;42.320;23.198;2023-05-22T09:17:16;94519.75;;;25.39;28.01
63097;BME280;49185;42.320;23.198;2023-05-22T09:19:43;94517.44;;;25.86;28.11
63097;BME280;49185;42.320;23.198;2023-05-22T09:22:08;94514.25;;;26.47;28.34
63097;BME280;49185;42.320;23.198;2023-05-22T09:24:41;94506.59;;;27.08;26.75
63097;BME280;49185;42.320;23.198;2023-05-22T09:27:07;94526.84;;;24.75;29.35
63097;BME280;49185;42.320;23.198;2023-05-22T09:29:54;94523.78;;;24.77;29.83
63097;BME280;49185;42.320;23.198;2023-05-22T09:32:20;94527.25;;;24.49;29.09
63097;BME280;49185;42.320;23.198;2023-05-22T09:34:46;94521.22;;;24.68;28.96
63097;BME280;49185;42.320;23.198;2023-05-22T09:37:12;94526.19;;;24.78;28.75
63097;BME280;49185;42.320;23.198;2023-05-22T09:39:42;94527.94;;;24.99;28.77
63097;BME280;49185;42.320;23.198;2023-05-22T09:42:08;94518.75;;;25.32;27.97
63097;BME280;49185;42.320;23.198;2023-05-22T09:44:34;94528.38;;;25.01;28.54
63097;BME280;49185;42.320;23.198;2023-05-22T09:47:00;94524.47;;;24.86;28.83
63097;BME280;49185;42.320;23.198;2023-05-22T09:49:25;94527.16;;;25.55;28.18
63097;BME280;49185;42.320;23.198;2023-05-22T09:51:53;94524.66;;;26.10;27.38
63097;BME280;49185;42.320;23.198;2023-05-22T09:54:19;94516.38;;;25.90;27.36
63097;BME280;49185;42.320;23.198;2023-05-22T09:56:47;94517.72;;;26.12;27.83
63097;BME280;49185;42.320;23.198;2023-05-22T09:59:14;94516.81;;;26.40;27.28
63097;BME280;49185;42.320;23.198;2023-05-22T10:01:43;94514.59;;;25.22;29.42
63097;BME280;49185;42.320;23.198;2023-05-22T10:04:11;94510.69;;;25.95;27.47
63097;BME280;49185;42.320;23.198;2023-05-22T10:06:37;94515.53;;;25.42;28.41
63097;BME280;49185;42.320;23.198;2023-05-22T10:09:05;94503.88;;;25.01;28.24
63097;BME280;49185;42.320;23.198;2023-05-22T10:11:36;94509.16;;;25.50;27.15
63097;BME280;49185;42.320;23.198;2023-05-22T10:14:02;94498.41;;;25.42;28.84
63097;BME280;49185;42.320;23.198;2023-05-22T10:16:28;94504.13;;;24.96;28.43
63097;BME280;49185;42.320;23.198;2023-05-22T10:18:55;94500.47;;;25.76;28.17
63097;BME280;49185;42.320;23.198;2023-05-22T10:21:20;94509.16;;;26.46;25.81
63097;BME280;49185;42.320;23.198;2023-05-22T10:23:47;94489.63;;;26.79;23.90
63097;BME280;49185;42.320;23.198;2023-05-22T10:26:15;94503.81;;;26.18;25.70
63097;BME280;49185;42.320;23.198;2023-05-22T10:28:45;94494.97;;;26.05;26.11
63097;BME280;49185;42.320;23.198;2023-05-22T10:31:34;94488.78;;;25.04;25.90
63097;BME280;49185;42.320;23.198;2023-05-22T10:34:04;94489.88;;;25.15;25.06
63097;BME280;49185;42.320;23.198;2023-05-22T10:39:47;94472.25;;;24.56;27.19
63097;BME280;49185;42.320;23.198;2023-05-22T10:42:18;94491.34;;;24.19;28.07
63097;BME280;49185;42.320;23.198;2023-05-22T10:44:46;94482.50;;;24.10;27.74
63097;BME280;49185;42.320;23.198;2023-05-22T10:47:13;94494.97;;;24.23;28.98
63097;BME280;49185;42.320;23.198;2023-05-22T10:49:44;94489.25;;;23.66;30.74
63097;BME280;49185;42.320;23.198;2023-05-22T10:52:10;94483.13;;;23.57;29.15
63097;BME280;49185;42.320;23.198;2023-05-22T10:57:30;94481.59;;;23.35;31.00
63097;BME280;49185;42.320;23.198;2023-05-22T11:02:37;94463.03;;;23.95;30.81
63097;BME280;49185;42.320;23.198;2023-05-22T11:07:43;94458.38;;;23.71;31.02
63097;BME280;49185;42.320;23.198;2023-05-22T11:10:09;94458.81;;;23.61;31.72
63097;BME280;49185;42.320;23.198;2023-05-22T11:12:34;94465.94;;;23.07;31.22
63097;BME280;49185;42.320;23.198;2023-05-22T11:15:08;94453.69;;;23.35;31.15
63097;BME280;49185;42.320;23.198;2023-05-22T11:17:40;94454.16;;;22.82;31.08
63097;BME280;49185;42.320;23.198;2023-05-22T11:20:17;94466.63;;;23.62;32.08
63097;BME280;49185;42.320;23.198;2023-05-22T11:23:02;94448.75;;;23.74;30.30
63097;BME280;49185;42.320;23.198;2023-05-22T11:25:31;94453.75;;;23.84;30.82
63097;BME280;49185;42.320;23.198;2023-05-22T11:27:57;94453.63;;;23.68;31.47
63097;BME280;49185;42.320;23.198;2023-05-22T11:30:27;94448.50;;;23.66;32.22
63097;BME280;49185;42.320;23.198;2023-05-22T11:32:53;94459.75;;;23.90;32.20
63097;BME280;49185;42.320;23.198;2023-05-22T11:35:20;94464.09;;;23.33;32.26
63097;BME280;49185;42.320;23.198;2023-05-22T11:37:47;94454.31;;;23.19;33.41
63097;BME280;49185;42.320;23.198;2023-05-22T11:40:20;94449.25;;;23.42;33.19
63097;BME280;49185;42.320;23.198;2023-05-22T11:42:46;94467.00;;;22.73;34.92
63097;BME280;49185;42.320;23.198;2023-05-22T11:45:13;94461.84;;;22.59;34.85
63097;BME280;49185;42.320;23.198;2023-05-22T11:47:38;94463.06;;;22.49;35.28
63097;BME280;49185;42.320;23.198;2023-05-22T11:50:07;94464.03;;;22.66;35.33
63097;BME280;49185;42.320;23.198;2023-05-22T11:52:34;94468.41;;;22.58;36.30
63097;BME280;49185;42.320;23.198;2023-05-22T11:54:59;94468.22;;;22.63;37.15
63097;BME280;49185;42.320;23.198;2023-05-22T11:57:25;94476.00;;;21.84;37.82
63097;BME280;49185;42.320;23.198;2023-05-22T11:59:51;94469.00;;;21.36;37.98
63097;BME280;49185;42.320;23.198;2023-05-22T12:02:18;94469.38;;;21.08;39.11
63097;BME280;49185;42.320;23.198;2023-05-22T12:04:44;94470.41;;;20.69;40.22
63097;BME280;49185;42.320;23.198;2023-05-22T12:07:10;94481.69;;;20.71;40.17
63097;BME280;49185;42.320;23.198;2023-05-22T12:09:39;94474.97;;;20.51;40.75
63097;BME280;49185;42.320;23.198;2023-05-22T12:12:04;94487.09;;;20.62;41.09
63097;BME280;49185;42.320;23.198;2023-05-22T12:14:30;94480.38;;;20.94;41.15
63097;BME280;49185;42.320;23.198;2023-05-22T12:17:02;94482.09;;;20.38;41.15
63097;BME280;49185;42.320;23.198;2023-05-22T12:19:28;94492.91;;;20.12;42.23
63097;BME280;49185;42.320;23.198;2023-05-22T12:21:54;94481.63;;;20.36;41.67
63097;BME280;49185;42.320;23.198;2023-05-22T12:24:20;94476.22;;;20.36;42.24
63097;BME280;49185;42.320;23.198;2023-05-22T12:26:49;94480.19;;;20.12;42.17
63097;BME280;49185;42.320;23.198;2023-05-22T12:29:16;94483.53;;;20.26;40.72
63097;BME280;49185;42.320;23.198;2023-05-22T12:31:43;94473.59;;;19.78;42.09
63097;BME280;49185;42.320;23.198;2023-05-22T12:34:08;94472.03;;;19.95;40.74
63097;BME280;49185;42.320;23.198;2023-05-22T12:36:38;94482.03;;;19.54;41.45
63097;BME280;49185;42.320;23.198;2023-05-22T12:39:08;94481.28;;;19.62;43.33
63097;BME280;49185;42.320;23.198;2023-05-22T12:41:34;94482.16;;;19.49;43.79
63097;BME280;49185;42.320;23.198;2023-05-22T12:44:00;94473.28;;;19.48;44.57
63097;BME280;49185;42.320;23.198;2023-05-22T12:46:25;94469.13;;;19.73;43.17
63097;BME280;49185;42.320;23.198;2023-05-22T12:48:51;94464.25;;;19.53;43.25
63097;BME280;49185;42.320;23.198;2023-05-22T12:51:16;94463.66;;;19.65;41.60
63097;BME280;49185;42.320;23.198;2023-05-22T12:53:42;94457.47;;;19.64;41.81
63097;BME280;49185;42.320;23.198;2023-05-22T12:56:07;94471.50;;;19.44;42.76
63097;BME280;49185;42.320;23.198;2023-05-22T12:58:33;94471.06;;;19.50;42.98
63097;BME280;49185;42.320;23.198;2023-05-22T13:00:58;94468.38;;;19.50;42.88
63097;BME280;49185;42.320;23.198;2023-05-22T13:03:24;94471.44;;;19.66;42.73
63097;BME280;49185;42.320;23.198;2023-05-22T13:05:49;94461.06;;;19.51;43.24
63097;BME280;49185;42.320;23.198;2023-05-22T13:08:15;94452.63;;;19.84;42.77